sensor_id;sensor_type;location;lat;lon;timestamp;P1;durP1;ratioP1;P2;durP2;ratioP2
20865;SDS011;10593;48.398;10.698;2023-12-07T00:01:34;9.43;;;8.63;;
20865;SDS011;10593;48.398;10.698;2023-12-07T00:04:00;9.20;;;8.40;;
20865;SDS011;10593;48.398;10.698;2023-12-07T00:06:26;9.87;;;8.90;;
20865;SDS011;10593;48.398;10.698;2023-12-07T00:08:52;9.40;;;8.50;;
20865;SDS011;10593;48.398;10.698;2023-12-07T00:11:17;10.03;;;9.03;;
20865;SDS011;10593;48.398;10.698;2023-12-07T00:13:43;9.93;;;9.03;;
20865;SDS011;10593;48.398;10.698;2023-12-07T00:16:09;9.63;;;8.70;;
20865;SDS011;10593;48.398;10.698;2023-12-07T00:18:35;9.37;;;8.47;;
20865;SDS011;10593;48.398;10.698;2023-12-07T00:21:01;9.53;;;8.63;;
20865;SDS011;10593;48.398;10.698;2023-12-07T00:23:26;8.90;;;8.10;;
20865;SDS011;10593;48.398;10.698;2023-12-07T00:25:52;8.90;;;8.10;;
20865;SDS011;10593;48.398;10.698;2023-12-07T00:28:18;9.50;;;8.70;;
20865;SDS011;10593;48.398;10.698;2023-12-07T00:30:43;9.03;;;8.13;;
20865;SDS011;10593;48.398;10.698;2023-12-07T00:33:09;9.30;;;8.40;;
20865;SDS011;10593;48.398;10.698;2023-12-07T00:35:35;8.90;;;8.10;;
20865;SDS011;10593;48.398;10.698;2023-12-07T00:38:01;8.57;;;7.77;;
20865;SDS011;10593;48.398;10.698;2023-12-07T00:40:27;9.13;;;8.33;;
20865;SDS011;10593;48.398;10.698;2023-12-07T00:42:53;8.23;;;7.50;;
20865;SDS011;10593;48.398;10.698;2023-12-07T00:45:18;8.17;;;7.43;;
20865;SDS011;10593;48.398;10.698;2023-12-07T00:47:44;8.03;;;7.33;;
20865;SDS011;10593;48.398;10.698;2023-12-07T00:50:13;7.47;;;6.77;;
20865;SDS011;10593;48.398;10.698;2023-12-07T00:52:39;7.40;;;6.77;;
20865;SDS011;10593;48.398;10.698;2023-12-07T00:55:05;7.17;;;6.57;;
20865;SDS011;10593;48.398;10.698;2023-12-07T00:57:31;7.60;;;6.90;;
20865;SDS011;10593;48.398;10.698;2023-12-07T00:59:57;7.00;;;6.40;;
20865;SDS011;10593;48.398;10.698;2023-12-07T01:02:22;6.57;;;6.07;;
20865;SDS011;10593;48.398;10.698;2023-12-07T01:04:49;7.23;;;6.63;;
20865;SDS011;10593;48.398;10.698;2023-12-07T01:07:15;7.20;;;6.60;;
20865;SDS011;10593;48.398;10.698;2023-12-07T01:09:40;7.00;;;6.40;;
20865;SDS011;10593;48.398;10.698;2023-12-07T01:12:06;7.23;;;6.67;;
20865;SDS011;10593;48.398;10.698;2023-12-07T01:14:31;7.30;;;6.70;;
20865;SDS011;10593;48.398;10.698;2023-12-07T01:16:57;7.43;;;6.73;;
20865;SDS011;10593;48.398;10.698;2023-12-07T01:19:23;7.57;;;6.97;;
20865;SDS011;10593;48.398;10.698;2023-12-07T01:21:50;6.87;;;6.27;;
20865;SDS011;10593;48.398;10.698;2023-12-07T01:24:15;7.97;;;7.27;;
20865;SDS011;10593;48.398;10.698;2023-12-07T01:26:41;7.70;;;7.00;;
20865;SDS011;10593;48.398;10.698;2023-12-07T01:29:07;8.47;;;7.70;;
20865;SDS011;10593;48.398;10.698;2023-12-07T01:31:33;7.97;;;7.27;;
20865;SDS011;10593;48.398;10.698;2023-12-07T01:33:58;7.50;;;6.90;;
20865;SDS011;10593;48.398;10.698;2023-12-07T01:36:24;7.50;;;6.90;;
20865;SDS011;10593;48.398;10.698;2023-12-07T01:38:50;7.80;;;7.10;;
20865;SDS011;10593;48.398;10.698;2023-12-07T01:41:16;8.23;;;7.47;;
20865;SDS011;10593;48.398;10.698;2023-12-07T01:43:45;7.90;;;7.20;;
20865;SDS011;10593;48.398;10.698;2023-12-07T01:46:11;7.70;;;7.10;;
20865;SDS011;10593;48.398;10.698;2023-12-07T01:48:38;8.67;;;7.97;;
20865;SDS011;10593;48.398;10.698;2023-12-07T01:51:04;9.00;;;8.10;;
20865;SDS011;10593;48.398;10.698;2023-12-07T01:53:31;7.53;;;6.93;;
20865;SDS011;10593;48.398;10.698;2023-12-07T01:55:57;8.80;;;7.90;;
20865;SDS011;10593;48.398;10.698;2023-12-07T01:58:23;7.17;;;6.57;;
20865;SDS011;10593;48.398;10.698;2023-12-07T02:00:50;8.33;;;7.63;;
20865;SDS011;10593;48.398;10.698;2023-12-07T02:03:17;8.77;;;7.97;;
20865;SDS011;10593;48.398;10.698;2023-12-07T02:05:43;8.33;;;7.53;;
20865;SDS011;10593;48.398;10.698;2023-12-07T02:08:13;8.47;;;7.70;;
20865;SDS011;10593;48.398;10.698;2023-12-07T02:10:40;8.90;;;8.00;;
20865;SDS011;10593;48.398;10.698;2023-12-07T02:13:06;9.27;;;8.37;;
20865;SDS011;10593;48.398;10.698;2023-12-07T02:15:32;9.17;;;8.27;;
20865;SDS011;10593;48.398;10.698;2023-12-07T02:18:14;8.53;;;7.73;;
20865;SDS011;10593;48.398;10.698;2023-12-07T02:21:25;9.10;;;8.30;;
20865;SDS011;10593;48.398;10.698;2023-12-07T02:23:58;8.60;;;7.80;;
20865;SDS011;10593;48.398;10.698;2023-12-07T02:26:35;9.63;;;8.63;;
20865;SDS011;10593;48.398;10.698;2023-12-07T02:29:02;8.67;;;7.93;;
20865;SDS011;10593;48.398;10.698;2023-12-07T02:31:28;9.40;;;8.60;;
20865;SDS011;10593;48.398;10.698;2023-12-07T02:33:55;8.37;;;7.67;;
20865;SDS011;10593;48.398;10.698;2023-12-07T02:36:22;8.33;;;7.63;;
20865;SDS011;10593;48.398;10.698;2023-12-07T02:38:53;8.50;;;7.70;;
20865;SDS011;10593;48.398;10.698;2023-12-07T02:41:23;9.33;;;8.43;;
20865;SDS011;10593;48.398;10.698;2023-12-07T02:43:51;8.33;;;7.63;;
20865;SDS011;10593;48.398;10.698;2023-12-07T02:46:17;9.13;;;8.33;;
20865;SDS011;10593;48.398;10.698;2023-12-07T02:48:43;9.03;;;8.23;;
20865;SDS011;10593;48.398;10.698;2023-12-07T02:51:09;9.07;;;8.17;;
20865;SDS011;10593;48.398;10.698;2023-12-07T02:53:34;9.23;;;8.27;;
20865;SDS011;10593;48.398;10.698;2023-12-07T02:56:00;9.17;;;8.37;;
20865;SDS011;10593;48.398;10.698;2023-12-07T02:58:26;8.57;;;7.77;;
20865;SDS011;10593;48.398;10.698;2023-12-07T03:00:51;8.50;;;7.73;;
20865;SDS011;10593;48.398;10.698;2023-12-07T03:03:17;7.50;;;6.80;;
20865;SDS011;10593;48.398;10.698;2023-12-07T03:05:43;7.87;;;7.17;;
20865;SDS011;10593;48.398;10.698;2023-12-07T03:08:08;9.50;;;8.43;;
20865;SDS011;10593;48.398;10.698;2023-12-07T03:10:34;7.63;;;6.93;;
20865;SDS011;10593;48.398;10.698;2023-12-07T03:13:00;8.87;;;8.07;;
20865;SDS011;10593;48.398;10.698;2023-12-07T03:15:25;8.17;;;7.47;;
20865;SDS011;10593;48.398;10.698;2023-12-07T03:17:51;8.10;;;7.37;;
20865;SDS011;10593;48.398;10.698;2023-12-07T03:20:17;8.07;;;7.37;;
20865;SDS011;10593;48.398;10.698;2023-12-07T03:22:43;8.97;;;8.07;;
20865;SDS011;10593;48.398;10.698;2023-12-07T03:25:09;7.83;;;7.13;;
20865;SDS011;10593;48.398;10.698;2023-12-07T03:27:35;8.07;;;7.37;;
20865;SDS011;10593;48.398;10.698;2023-12-07T03:30:01;8.23;;;7.53;;
20865;SDS011;10593;48.398;10.698;2023-12-07T03:32:27;7.93;;;7.23;;
20865;SDS011;10593;48.398;10.698;2023-12-07T03:34:53;8.20;;;7.40;;
20865;SDS011;10593;48.398;10.698;2023-12-07T03:37:18;7.33;;;6.73;;
20865;SDS011;10593;48.398;10.698;2023-12-07T03:39:44;8.57;;;7.77;;
20865;SDS011;10593;48.398;10.698;2023-12-07T03:42:09;8.43;;;7.40;;
20865;SDS011;10593;48.398;10.698;2023-12-07T03:44:35;7.80;;;7.10;;
20865;SDS011;10593;48.398;10.698;2023-12-07T03:47:01;8.17;;;7.47;;
20865;SDS011;10593;48.398;10.698;2023-12-07T03:49:26;7.37;;;6.67;;
20865;SDS011;10593;48.398;10.698;2023-12-07T03:51:52;7.93;;;7.23;;
20865;SDS011;10593;48.398;10.698;2023-12-07T03:54:18;7.90;;;7.20;;
20865;SDS011;10593;48.398;10.698;2023-12-07T03:56:43;8.20;;;7.50;;
20865;SDS011;10593;48.398;10.698;2023-12-07T03:59:09;8.23;;;7.53;;
20865;SDS011;10593;48.398;10.698;2023-12-07T04:01:35;7.60;;;6.90;;
20865;SDS011;10593;48.398;10.698;2023-12-07T04:04:01;7.40;;;6.80;;
20865;SDS011;10593;48.398;10.698;2023-12-07T04:06:26;7.97;;;7.23;;
20865;SDS011;10593;48.398;10.698;2023-12-07T04:08:52;8.23;;;7.43;;
20865;SDS011;10593;48.398;10.698;2023-12-07T04:11:18;7.33;;;6.63;;
20865;SDS011;10593;48.398;10.698;2023-12-07T04:13:44;7.73;;;7.03;;
20865;SDS011;10593;48.398;10.698;2023-12-07T04:16:10;7.00;;;6.40;;
20865;SDS011;10593;48.398;10.698;2023-12-07T04:18:37;7.17;;;6.57;;
20865;SDS011;10593;48.398;10.698;2023-12-07T04:21:03;7.73;;;7.10;;
20865;SDS011;10593;48.398;10.698;2023-12-07T04:23:30;7.33;;;6.63;;
20865;SDS011;10593;48.398;10.698;2023-12-07T04:25:56;7.47;;;6.77;;
20865;SDS011;10593;48.398;10.698;2023-12-07T04:28:22;7.20;;;6.50;;
20865;SDS011;10593;48.398;10.698;2023-12-07T04:30:47;6.97;;;6.37;;
20865;SDS011;10593;48.398;10.698;2023-12-07T04:33:13;7.37;;;6.70;;
20865;SDS011;10593;48.398;10.698;2023-12-07T04:35:39;7.30;;;6.63;;
20865;SDS011;10593;48.398;10.698;2023-12-07T04:38:05;8.00;;;7.20;;
20865;SDS011;10593;48.398;10.698;2023-12-07T04:40:31;7.70;;;6.90;;
20865;SDS011;10593;48.398;10.698;2023-12-07T04:42:56;6.90;;;6.30;;
20865;SDS011;10593;48.398;10.698;2023-12-07T04:45:22;7.47;;;6.77;;
20865;SDS011;10593;48.398;10.698;2023-12-07T04:47:48;6.93;;;6.33;;
20865;SDS011;10593;48.398;10.698;2023-12-07T04:50:14;7.43;;;6.73;;
20865;SDS011;10593;48.398;10.698;2023-12-07T04:52:40;7.13;;;6.53;;
20865;SDS011;10593;48.398;10.698;2023-12-07T04:55:06;7.63;;;6.93;;
20865;SDS011;10593;48.398;10.698;2023-12-07T04:57:33;7.23;;;6.60;;
20865;SDS011;10593;48.398;10.698;2023-12-07T04:59:59;7.00;;;6.40;;
20865;SDS011;10593;48.398;10.698;2023-12-07T05:02:26;6.93;;;6.33;;
20865;SDS011;10593;48.398;10.698;2023-12-07T05:04:52;6.90;;;6.30;;
20865;SDS011;10593;48.398;10.698;2023-12-07T05:07:19;7.37;;;6.77;;
20865;SDS011;10593;48.398;10.698;2023-12-07T05:09:45;7.37;;;6.77;;
20865;SDS011;10593;48.398;10.698;2023-12-07T05:12:11;6.70;;;6.10;;
20865;SDS011;10593;48.398;10.698;2023-12-07T05:14:36;7.13;;;6.53;;
20865;SDS011;10593;48.398;10.698;2023-12-07T05:17:02;6.80;;;6.20;;
20865;SDS011;10593;48.398;10.698;2023-12-07T05:19:28;7.67;;;6.97;;
20865;SDS011;10593;48.398;10.698;2023-12-07T05:21:54;6.73;;;6.13;;
20865;SDS011;10593;48.398;10.698;2023-12-07T05:24:20;7.20;;;6.60;;
20865;SDS011;10593;48.398;10.698;2023-12-07T05:26:46;7.07;;;6.47;;
20865;SDS011;10593;48.398;10.698;2023-12-07T05:29:12;7.00;;;6.30;;
20865;SDS011;10593;48.398;10.698;2023-12-07T05:31:38;7.53;;;6.87;;
20865;SDS011;10593;48.398;10.698;2023-12-07T05:34:05;6.80;;;6.20;;
20865;SDS011;10593;48.398;10.698;2023-12-07T05:36:32;8.50;;;7.60;;
20865;SDS011;10593;48.398;10.698;2023-12-07T05:38:57;8.27;;;7.50;;
20865;SDS011;10593;48.398;10.698;2023-12-07T05:41:23;8.33;;;7.53;;
20865;SDS011;10593;48.398;10.698;2023-12-07T05:43:50;7.67;;;6.97;;
20865;SDS011;10593;48.398;10.698;2023-12-07T05:46:17;8.10;;;7.40;;
20865;SDS011;10593;48.398;10.698;2023-12-07T05:48:44;8.17;;;7.47;;
20865;SDS011;10593;48.398;10.698;2023-12-07T05:51:13;8.17;;;7.40;;
20865;SDS011;10593;48.398;10.698;2023-12-07T05:53:41;8.33;;;7.63;;
20865;SDS011;10593;48.398;10.698;2023-12-07T05:56:08;7.27;;;6.67;;
20865;SDS011;10593;48.398;10.698;2023-12-07T05:58:34;8.10;;;7.30;;
20865;SDS011;10593;48.398;10.698;2023-12-07T06:01:00;7.83;;;7.07;;
20865;SDS011;10593;48.398;10.698;2023-12-07T06:03:27;7.53;;;6.87;;
20865;SDS011;10593;48.398;10.698;2023-12-07T06:05:54;7.37;;;6.67;;
20865;SDS011;10593;48.398;10.698;2023-12-07T06:08:20;8.07;;;7.27;;
20865;SDS011;10593;48.398;10.698;2023-12-07T06:10:47;7.27;;;6.67;;
20865;SDS011;10593;48.398;10.698;2023-12-07T06:13:14;7.50;;;6.80;;
20865;SDS011;10593;48.398;10.698;2023-12-07T06:15:40;8.33;;;7.53;;
20865;SDS011;10593;48.398;10.698;2023-12-07T06:18:06;7.83;;;7.13;;
20865;SDS011;10593;48.398;10.698;2023-12-07T06:20:32;7.07;;;6.47;;
20865;SDS011;10593;48.398;10.698;2023-12-07T06:22:58;8.70;;;7.90;;
20865;SDS011;10593;48.398;10.698;2023-12-07T06:25:24;8.70;;;7.93;;
20865;SDS011;10593;48.398;10.698;2023-12-07T06:27:50;8.03;;;7.33;;
20865;SDS011;10593;48.398;10.698;2023-12-07T06:30:16;8.00;;;7.23;;
20865;SDS011;10593;48.398;10.698;2023-12-07T06:32:42;7.80;;;7.10;;
20865;SDS011;10593;48.398;10.698;2023-12-07T06:35:09;9.00;;;8.10;;
20865;SDS011;10593;48.398;10.698;2023-12-07T06:37:37;7.93;;;7.20;;
20865;SDS011;10593;48.398;10.698;2023-12-07T06:40:04;7.90;;;7.20;;
20865;SDS011;10593;48.398;10.698;2023-12-07T06:42:34;8.10;;;7.40;;
20865;SDS011;10593;48.398;10.698;2023-12-07T06:45:00;8.07;;;7.33;;
20865;SDS011;10593;48.398;10.698;2023-12-07T06:47:27;7.87;;;7.17;;
20865;SDS011;10593;48.398;10.698;2023-12-07T06:49:53;7.60;;;6.90;;
20865;SDS011;10593;48.398;10.698;2023-12-07T06:52:20;8.00;;;7.20;;
20865;SDS011;10593;48.398;10.698;2023-12-07T06:54:47;7.30;;;6.60;;
20865;SDS011;10593;48.398;10.698;2023-12-07T06:57:12;7.67;;;6.97;;
20865;SDS011;10593;48.398;10.698;2023-12-07T06:59:38;7.03;;;6.43;;
20865;SDS011;10593;48.398;10.698;2023-12-07T07:02:05;7.70;;;7.00;;
20865;SDS011;10593;48.398;10.698;2023-12-07T07:04:31;6.67;;;6.17;;
20865;SDS011;10593;48.398;10.698;2023-12-07T07:06:57;7.87;;;7.17;;
20865;SDS011;10593;48.398;10.698;2023-12-07T07:09:22;9.20;;;7.43;;
20865;SDS011;10593;48.398;10.698;2023-12-07T07:11:48;7.17;;;6.47;;
20865;SDS011;10593;48.398;10.698;2023-12-07T07:14:15;7.50;;;6.90;;
20865;SDS011;10593;48.398;10.698;2023-12-07T07:16:41;7.63;;;6.93;;
20865;SDS011;10593;48.398;10.698;2023-12-07T07:19:07;7.23;;;6.53;;
20865;SDS011;10593;48.398;10.698;2023-12-07T07:21:33;6.53;;;6.00;;
20865;SDS011;10593;48.398;10.698;2023-12-07T07:23:59;7.47;;;6.77;;
20865;SDS011;10593;48.398;10.698;2023-12-07T07:26:25;7.20;;;6.60;;
20865;SDS011;10593;48.398;10.698;2023-12-07T07:28:51;8.37;;;6.50;;
20865;SDS011;10593;48.398;10.698;2023-12-07T07:31:17;7.80;;;7.00;;
20865;SDS011;10593;48.398;10.698;2023-12-07T07:33:44;7.80;;;7.00;;
20865;SDS011;10593;48.398;10.698;2023-12-07T07:36:12;7.00;;;6.40;;
20865;SDS011;10593;48.398;10.698;2023-12-07T07:38:40;7.37;;;6.67;;
20865;SDS011;10593;48.398;10.698;2023-12-07T07:41:06;7.50;;;6.80;;
20865;SDS011;10593;48.398;10.698;2023-12-07T07:43:32;7.53;;;6.90;;
20865;SDS011;10593;48.398;10.698;2023-12-07T07:45:59;7.37;;;6.67;;
20865;SDS011;10593;48.398;10.698;2023-12-07T07:48:25;8.67;;;6.80;;
20865;SDS011;10593;48.398;10.698;2023-12-07T07:50:51;7.17;;;6.47;;
20865;SDS011;10593;48.398;10.698;2023-12-07T07:53:17;6.93;;;6.33;;
20865;SDS011;10593;48.398;10.698;2023-12-07T07:55:43;6.33;;;5.77;;
20865;SDS011;10593;48.398;10.698;2023-12-07T07:58:09;7.63;;;6.93;;
20865;SDS011;10593;48.398;10.698;2023-12-07T08:00:34;7.07;;;6.47;;
20865;SDS011;10593;48.398;10.698;2023-12-07T08:03:00;7.50;;;6.77;;
20865;SDS011;10593;48.398;10.698;2023-12-07T08:05:26;7.60;;;6.90;;
20865;SDS011;10593;48.398;10.698;2023-12-07T08:07:51;7.63;;;6.93;;
20865;SDS011;10593;48.398;10.698;2023-12-07T08:10:17;7.30;;;6.70;;
20865;SDS011;10593;48.398;10.698;2023-12-07T08:12:43;7.20;;;6.60;;
20865;SDS011;10593;48.398;10.698;2023-12-07T08:15:10;7.80;;;7.10;;
20865;SDS011;10593;48.398;10.698;2023-12-07T08:17:39;8.17;;;7.37;;
20865;SDS011;10593;48.398;10.698;2023-12-07T08:20:06;7.67;;;7.07;;
20865;SDS011;10593;48.398;10.698;2023-12-07T08:22:35;7.33;;;6.73;;
20865;SDS011;10593;48.398;10.698;2023-12-07T08:25:02;7.80;;;7.10;;
20865;SDS011;10593;48.398;10.698;2023-12-07T08:27:31;8.17;;;7.37;;
20865;SDS011;10593;48.398;10.698;2023-12-07T08:29:58;7.30;;;6.70;;
20865;SDS011;10593;48.398;10.698;2023-12-07T08:32:26;7.93;;;7.23;;
20865;SDS011;10593;48.398;10.698;2023-12-07T08:34:52;7.90;;;7.20;;
20865;SDS011;10593;48.398;10.698;2023-12-07T08:37:19;8.17;;;7.37;;
20865;SDS011;10593;48.398;10.698;2023-12-07T08:39:45;7.97;;;7.17;;
20865;SDS011;10593;48.398;10.698;2023-12-07T08:42:11;8.40;;;7.60;;
20865;SDS011;10593;48.398;10.698;2023-12-07T08:44:36;7.70;;;6.97;;
20865;SDS011;10593;48.398;10.698;2023-12-07T08:47:03;7.97;;;7.27;;
20865;SDS011;10593;48.398;10.698;2023-12-07T08:49:30;8.13;;;7.43;;
20865;SDS011;10593;48.398;10.698;2023-12-07T08:51:56;8.00;;;7.30;;
20865;SDS011;10593;48.398;10.698;2023-12-07T08:54:22;7.87;;;7.17;;
20865;SDS011;10593;48.398;10.698;2023-12-07T08:56:48;7.57;;;6.87;;
20865;SDS011;10593;48.398;10.698;2023-12-07T08:59:13;7.57;;;6.87;;
20865;SDS011;10593;48.398;10.698;2023-12-07T09:01:39;7.67;;;7.03;;
20865;SDS011;10593;48.398;10.698;2023-12-07T09:04:05;8.20;;;7.40;;
20865;SDS011;10593;48.398;10.698;2023-12-07T09:06:31;8.07;;;7.37;;
20865;SDS011;10593;48.398;10.698;2023-12-07T09:08:56;8.10;;;7.37;;
20865;SDS011;10593;48.398;10.698;2023-12-07T09:11:22;7.60;;;6.90;;
20865;SDS011;10593;48.398;10.698;2023-12-07T09:13:48;7.37;;;6.67;;
20865;SDS011;10593;48.398;10.698;2023-12-07T09:16:15;8.30;;;7.50;;
20865;SDS011;10593;48.398;10.698;2023-12-07T09:18:43;7.63;;;7.03;;
20865;SDS011;10593;48.398;10.698;2023-12-07T09:21:11;8.10;;;7.40;;
20865;SDS011;10593;48.398;10.698;2023-12-07T09:23:36;7.90;;;7.20;;
20865;SDS011;10593;48.398;10.698;2023-12-07T09:26:02;8.13;;;7.43;;
20865;SDS011;10593;48.398;10.698;2023-12-07T09:28:29;8.17;;;7.40;;
20865;SDS011;10593;48.398;10.698;2023-12-07T09:30:56;8.00;;;7.27;;
20865;SDS011;10593;48.398;10.698;2023-12-07T09:33:22;8.00;;;7.20;;
20865;SDS011;10593;48.398;10.698;2023-12-07T09:35:47;7.77;;;7.07;;
20865;SDS011;10593;48.398;10.698;2023-12-07T09:38:14;7.93;;;7.23;;
20865;SDS011;10593;48.398;10.698;2023-12-07T09:40:40;8.07;;;7.27;;
20865;SDS011;10593;48.398;10.698;2023-12-07T09:43:06;8.77;;;7.97;;
20865;SDS011;10593;48.398;10.698;2023-12-07T09:45:32;7.73;;;7.03;;
20865;SDS011;10593;48.398;10.698;2023-12-07T09:47:59;8.20;;;7.50;;
20865;SDS011;10593;48.398;10.698;2023-12-07T09:50:26;8.67;;;7.73;;
20865;SDS011;10593;48.398;10.698;2023-12-07T09:52:53;8.27;;;7.47;;
20865;SDS011;10593;48.398;10.698;2023-12-07T09:55:22;8.00;;;7.30;;
20865;SDS011;10593;48.398;10.698;2023-12-07T09:57:48;8.57;;;7.77;;
20865;SDS011;10593;48.398;10.698;2023-12-07T10:00:15;8.43;;;7.63;;
20865;SDS011;10593;48.398;10.698;2023-12-07T10:02:44;7.97;;;7.27;;
20865;SDS011;10593;48.398;10.698;2023-12-07T10:05:12;8.77;;;7.97;;
20865;SDS011;10593;48.398;10.698;2023-12-07T10:07:41;8.63;;;7.90;;
20865;SDS011;10593;48.398;10.698;2023-12-07T10:10:11;8.70;;;7.90;;
20865;SDS011;10593;48.398;10.698;2023-12-07T10:12:44;9.33;;;8.43;;
20865;SDS011;10593;48.398;10.698;2023-12-07T10:15:18;8.33;;;7.60;;
20865;SDS011;10593;48.398;10.698;2023-12-07T10:17:56;7.80;;;7.10;;
20865;SDS011;10593;48.398;10.698;2023-12-07T10:20:24;8.87;;;7.40;;
20865;SDS011;10593;48.398;10.698;2023-12-07T10:23:08;8.43;;;7.43;;
20865;SDS011;10593;48.398;10.698;2023-12-07T10:25:38;8.10;;;7.30;;
20865;SDS011;10593;48.398;10.698;2023-12-07T10:28:08;8.17;;;7.37;;
20865;SDS011;10593;48.398;10.698;2023-12-07T10:30:36;7.97;;;7.20;;
20865;SDS011;10593;48.398;10.698;2023-12-07T10:33:04;8.47;;;7.67;;
20865;SDS011;10593;48.398;10.698;2023-12-07T10:35:32;8.83;;;7.90;;
20865;SDS011;10593;48.398;10.698;2023-12-07T10:37:58;7.83;;;7.13;;
20865;SDS011;10593;48.398;10.698;2023-12-07T10:40:24;7.23;;;6.63;;
20865;SDS011;10593;48.398;10.698;2023-12-07T10:42:51;8.77;;;7.87;;
20865;SDS011;10593;48.398;10.698;2023-12-07T10:45:24;8.87;;;7.97;;
20865;SDS011;10593;48.398;10.698;2023-12-07T10:47:54;8.03;;;7.23;;
20865;SDS011;10593;48.398;10.698;2023-12-07T10:50:35;7.60;;;6.90;;
20865;SDS011;10593;48.398;10.698;2023-12-07T10:53:10;7.80;;;7.00;;
20865;SDS011;10593;48.398;10.698;2023-12-07T10:55:56;7.97;;;7.27;;
20865;SDS011;10593;48.398;10.698;2023-12-07T10:58:26;6.63;;;5.90;;
20865;SDS011;10593;48.398;10.698;2023-12-07T11:00:52;6.67;;;6.07;;
20865;SDS011;10593;48.398;10.698;2023-12-07T11:03:19;6.13;;;5.63;;
20865;SDS011;10593;48.398;10.698;2023-12-07T11:05:49;6.37;;;5.77;;
20865;SDS011;10593;48.398;10.698;2023-12-07T11:08:27;5.90;;;5.40;;
20865;SDS011;10593;48.398;10.698;2023-12-07T11:11:04;4.83;;;4.43;;
20865;SDS011;10593;48.398;10.698;2023-12-07T11:14:06;4.97;;;4.57;;
20865;SDS011;10593;48.398;10.698;2023-12-07T11:16:37;5.63;;;4.93;;
20865;SDS011;10593;48.398;10.698;2023-12-07T11:19:06;4.90;;;4.43;;
20865;SDS011;10593;48.398;10.698;2023-12-07T11:21:57;4.93;;;4.50;;
20865;SDS011;10593;48.398;10.698;2023-12-07T11:24:23;5.20;;;4.70;;
20865;SDS011;10593;48.398;10.698;2023-12-07T11:26:53;5.80;;;5.30;;
20865;SDS011;10593;48.398;10.698;2023-12-07T11:29:30;4.57;;;4.17;;
20865;SDS011;10593;48.398;10.698;2023-12-07T11:31:58;5.33;;;4.83;;
20865;SDS011;10593;48.398;10.698;2023-12-07T11:34:39;5.30;;;4.80;;
20865;SDS011;10593;48.398;10.698;2023-12-07T11:37:07;4.97;;;4.47;;
20865;SDS011;10593;48.398;10.698;2023-12-07T11:39:34;5.20;;;4.70;;
20865;SDS011;10593;48.398;10.698;2023-12-07T11:42:09;4.90;;;4.40;;
20865;SDS011;10593;48.398;10.698;2023-12-07T11:44:44;4.70;;;4.30;;
20865;SDS011;10593;48.398;10.698;2023-12-07T11:47:16;4.73;;;4.33;;
20865;SDS011;10593;48.398;10.698;2023-12-07T11:49:45;4.60;;;4.20;;
20865;SDS011;10593;48.398;10.698;2023-12-07T11:52:13;4.33;;;4.00;;
20865;SDS011;10593;48.398;10.698;2023-12-07T11:54:48;4.57;;;4.27;;
20865;SDS011;10593;48.398;10.698;2023-12-07T11:57:15;4.40;;;3.90;;
20865;SDS011;10593;48.398;10.698;2023-12-07T11:59:43;4.60;;;4.20;;
20865;SDS011;10593;48.398;10.698;2023-12-07T12:02:10;4.63;;;4.20;;
20865;SDS011;10593;48.398;10.698;2023-12-07T12:04:37;5.33;;;4.07;;
20865;SDS011;10593;48.398;10.698;2023-12-07T12:07:03;3.73;;;3.43;;
20865;SDS011;10593;48.398;10.698;2023-12-07T12:09:29;3.50;;;3.20;;
20865;SDS011;10593;48.398;10.698;2023-12-07T12:11:56;3.97;;;3.67;;
20865;SDS011;10593;48.398;10.698;2023-12-07T12:14:25;3.70;;;3.40;;
20865;SDS011;10593;48.398;10.698;2023-12-07T12:16:52;4.13;;;3.83;;
20865;SDS011;10593;48.398;10.698;2023-12-07T12:19:19;3.60;;;3.30;;
20865;SDS011;10593;48.398;10.698;2023-12-07T12:21:45;3.83;;;3.53;;
20865;SDS011;10593;48.398;10.698;2023-12-07T12:24:12;3.43;;;3.20;;
20865;SDS011;10593;48.398;10.698;2023-12-07T12:26:41;3.77;;;3.47;;
20865;SDS011;10593;48.398;10.698;2023-12-07T12:29:07;4.40;;;4.00;;
20865;SDS011;10593;48.398;10.698;2023-12-07T12:31:34;5.13;;;4.73;;
20865;SDS011;10593;48.398;10.698;2023-12-07T12:34:01;3.80;;;3.50;;
20865;SDS011;10593;48.398;10.698;2023-12-07T12:36:27;6.93;;;6.23;;
20865;SDS011;10593;48.398;10.698;2023-12-07T12:38:54;4.23;;;3.83;;
20865;SDS011;10593;48.398;10.698;2023-12-07T12:41:21;5.63;;;5.13;;
20865;SDS011;10593;48.398;10.698;2023-12-07T12:43:48;3.60;;;3.30;;
20865;SDS011;10593;48.398;10.698;2023-12-07T12:46:15;2.67;;;2.47;;
20865;SDS011;10593;48.398;10.698;2023-12-07T12:48:54;2.33;;;2.23;;
20865;SDS011;10593;48.398;10.698;2023-12-07T12:51:26;2.17;;;2.07;;
20865;SDS011;10593;48.398;10.698;2023-12-07T12:53:55;2.50;;;2.30;;
20865;SDS011;10593;48.398;10.698;2023-12-07T12:56:21;2.10;;;2.00;;
20865;SDS011;10593;48.398;10.698;2023-12-07T12:58:51;2.30;;;2.10;;
20865;SDS011;10593;48.398;10.698;2023-12-07T13:01:21;2.13;;;2.03;;
20865;SDS011;10593;48.398;10.698;2023-12-07T13:03:47;1.97;;;1.87;;
20865;SDS011;10593;48.398;10.698;2023-12-07T13:06:14;3.40;;;2.40;;
20865;SDS011;10593;48.398;10.698;2023-12-07T13:08:44;2.47;;;2.27;;
20865;SDS011;10593;48.398;10.698;2023-12-07T13:11:19;2.60;;;2.00;;
20865;SDS011;10593;48.398;10.698;2023-12-07T13:13:45;1.90;;;1.80;;
20865;SDS011;10593;48.398;10.698;2023-12-07T13:16:12;2.50;;;2.10;;
20865;SDS011;10593;48.398;10.698;2023-12-07T13:18:39;2.33;;;2.23;;
20865;SDS011;10593;48.398;10.698;2023-12-07T13:21:05;2.50;;;2.30;;
20865;SDS011;10593;48.398;10.698;2023-12-07T13:23:31;2.40;;;2.23;;
20865;SDS011;10593;48.398;10.698;2023-12-07T13:25:57;2.97;;;2.40;;
20865;SDS011;10593;48.398;10.698;2023-12-07T13:28:23;2.20;;;2.10;;
20865;SDS011;10593;48.398;10.698;2023-12-07T13:30:48;1.97;;;1.87;;
20865;SDS011;10593;48.398;10.698;2023-12-07T13:33:14;2.57;;;2.37;;
20865;SDS011;10593;48.398;10.698;2023-12-07T13:35:40;4.07;;;2.50;;
20865;SDS011;10593;48.398;10.698;2023-12-07T13:38:05;2.33;;;2.13;;
20865;SDS011;10593;48.398;10.698;2023-12-07T13:40:31;2.77;;;2.57;;
20865;SDS011;10593;48.398;10.698;2023-12-07T13:42:57;2.67;;;2.47;;
20865;SDS011;10593;48.398;10.698;2023-12-07T13:45:22;2.90;;;2.70;;
20865;SDS011;10593;48.398;10.698;2023-12-07T13:47:48;2.57;;;2.37;;
20865;SDS011;10593;48.398;10.698;2023-12-07T13:50:14;3.70;;;2.70;;
20865;SDS011;10593;48.398;10.698;2023-12-07T13:52:39;3.13;;;2.63;;
20865;SDS011;10593;48.398;10.698;2023-12-07T13:55:07;4.30;;;2.50;;
20865;SDS011;10593;48.398;10.698;2023-12-07T13:57:34;3.03;;;2.53;;
20865;SDS011;10593;48.398;10.698;2023-12-07T13:59:59;2.83;;;2.47;;
20865;SDS011;10593;48.398;10.698;2023-12-07T14:02:28;4.27;;;3.33;;
20865;SDS011;10593;48.398;10.698;2023-12-07T14:04:53;7.67;;;6.13;;
20865;SDS011;10593;48.398;10.698;2023-12-07T14:07:20;5.53;;;4.73;;
20865;SDS011;10593;48.398;10.698;2023-12-07T14:09:50;4.23;;;3.40;;
20865;SDS011;10593;48.398;10.698;2023-12-07T14:12:17;3.40;;;3.20;;
20865;SDS011;10593;48.398;10.698;2023-12-07T14:14:44;2.60;;;2.50;;
20865;SDS011;10593;48.398;10.698;2023-12-07T14:17:15;3.40;;;2.40;;
20865;SDS011;10593;48.398;10.698;2023-12-07T14:19:45;3.00;;;2.73;;
20865;SDS011;10593;48.398;10.698;2023-12-07T14:22:12;3.30;;;3.00;;
20865;SDS011;10593;48.398;10.698;2023-12-07T14:24:38;2.90;;;2.70;;
20865;SDS011;10593;48.398;10.698;2023-12-07T14:27:03;2.83;;;2.60;;
20865;SDS011;10593;48.398;10.698;2023-12-07T14:29:31;3.00;;;2.80;;
20865;SDS011;10593;48.398;10.698;2023-12-07T14:31:57;2.90;;;2.70;;
20865;SDS011;10593;48.398;10.698;2023-12-07T14:34:24;2.80;;;2.60;;